Time;durP1;ratioP1;P1;durP2;ratioP2;P2;SDS_P1;SDS_P2;PMS_P1;PMS_P2;Temp;Humidity;BMP_temperature;BMP_pressure;BME280_temperature;BME280_humidity;BME280_pressure;Samples;Min_cycle;Max_cycle;Signal;HPM_P1;HPM_P2
2021/11/18 00:02:32;;;;;;;56.48;21.02;;;;;;;-3.47;78.43;101182.55;1739878;82;22079;-77
2021/11/18 00:05:36;;;;;;;42.20;18.23;;;;;;;-3.53;78.57;101175.63;1739423;82;21846;-76
2021/11/18 00:08:42;;;;;;;42.65;18.02;;;;;;;-3.49;78.65;101181.25;1739460;82;21298;-76
2021/11/18 00:11:50;;;;;;;45.28;18.32;;;;;;;-3.52;78.23;101184.08;1739740;82;21318;-76
2021/11/18 00:14:56;;;;;;;53.52;18.10;;;;;;;-3.60;77.99;101182.19;1739656;82;21341;-76
2021/11/18 00:18:06;;;;;;;44.77;18.62;;;;;;;-3.66;78.05;101179.78;1739737;82;21298;-76
2021/11/18 00:21:29;;;;;;;59.90;20.10;;;;;;;-3.69;78.18;101182.58;1739867;82;21168;-77
2021/11/18 00:24:35;;;;;;;38.08;17.37;;;;;;;-3.72;77.91;101181.36;1753923;81;21317;-77
2021/11/18 00:27:40;;;;;;;47.75;20.45;;;;;;;-3.78;77.46;101182.96;1764487;81;21951;-76
2021/11/18 00:30:46;;;;;;;49.90;20.27;;;;;;;-3.95;77.36;101179.20;1738194;82;21333;-76
2021/11/18 00:33:52;;;;;;;51.63;19.80;;;;;;;-4.08;77.72;101175.28;1739759;82;21172;-76
2021/11/18 00:36:57;;;;;;;49.00;19.95;;;;;;;-4.07;78.18;101173.00;1738924;82;21837;-76
2021/11/18 00:40:01;;;;;;;36.53;17.52;;;;;;;-4.06;78.46;101168.05;1739617;82;21280;-76
2021/11/18 00:43:11;;;;;;;48.85;20.12;;;;;;;-4.01;78.53;101170.07;1739470;82;21313;-76
2021/11/18 00:46:17;;;;;;;39.08;18.98;;;;;;;-4.03;78.22;101170.61;1738727;80;21869;-75
2021/11/18 00:49:23;;;;;;;47.88;19.35;;;;;;;-4.08;78.03;101167.27;1739850;82;21889;-78
2021/11/18 00:52:28;;;;;;;44.90;18.90;;;;;;;-4.05;77.96;101164.44;1739977;82;21921;-75
2021/11/18 00:55:35;;;;;;;50.55;19.25;;;;;;;-4.05;77.63;101175.60;1739705;82;21358;-76
2021/11/18 00:58:41;;;;;;;45.65;19.02;;;;;;;-4.11;77.93;101168.70;1739105;82;21209;-76
2021/11/18 01:01:48;;;;;;;45.12;18.75;;;;;;;-4.04;78.12;101159.53;1739680;82;21334;-76
2021/11/18 01:04:55;;;;;;;61.20;18.17;;;;;;;-3.97;77.98;101158.33;1738309;82;21917;-76
2021/11/18 01:08:01;;;;;;;44.95;19.25;;;;;;;-3.93;77.83;101157.73;1738334;82;21369;-77
2021/11/18 01:11:17;;;;;;;37.65;18.20;;;;;;;-3.99;77.72;101165.55;1739555;82;21715;-76
2021/11/18 01:14:25;;;;;;;44.35;16.67;;;;;;;-4.06;77.91;101158.70;1738598;82;21385;-76
2021/11/18 01:17:30;;;;;;;41.35;17.80;;;;;;;-4.10;78.17;101162.42;1720957;82;21757;-76
2021/11/18 01:20:35;;;;;;;52.15;18.82;;;;;;;-4.22;78.17;101167.81;1740747;82;21341;-75
2021/11/18 01:23:43;;;;;;;41.88;17.52;;;;;;;-4.27;78.46;101170.27;1739530;81;21175;-77
2021/11/18 01:26:53;;;;;;;47.83;16.55;;;;;;;-4.29;78.79;101164.97;1738617;82;21861;-76
2021/11/18 01:29:58;;;;;;;41.00;18.05;;;;;;;-4.33;79.09;101164.68;1738570;82;21369;-77
2021/11/18 01:33:03;;;;;;;38.25;16.65;;;;;;;-4.38;79.33;101162.20;1739790;82;21349;-76
2021/11/18 01:36:09;;;;;;;55.12;19.98;;;;;;;-4.38;79.67;101164.86;1739951;82;21228;-76
2021/11/18 01:39:16;;;;;;;41.58;19.95;;;;;;;-4.35;79.99;101164.36;1739802;82;21355;-76
2021/11/18 01:42:23;;;;;;;54.03;19.55;;;;;;;-4.30;80.17;101164.58;1738510;82;21687;-76
2021/11/18 01:45:31;;;;;;;42.93;18.95;;;;;;;-4.26;80.16;101158.65;1739631;81;21747;-76
2021/11/18 01:48:36;;;;;;;47.70;19.50;;;;;;;-4.21;80.41;101159.33;1738308;82;21393;-76
2021/11/18 01:51:45;;;;;;;42.70;18.12;;;;;;;-4.14;80.53;101155.46;1739455;82;21357;-77
2021/11/18 01:54:52;;;;;;;43.65;19.45;;;;;;;-4.04;80.62;101156.86;1738245;82;21367;-76
2021/11/18 01:57:59;;;;;;;34.83;16.97;;;;;;;-3.98;80.44;101156.59;1737698;82;21327;-76
2021/11/18 02:01:19;;;;;;;45.98;17.98;;;;;;;-4.05;80.28;101163.11;1730211;82;21320;-75
2021/11/18 02:04:28;;;;;;;38.45;18.32;;;;;;;-4.19;80.25;101160.13;1733745;82;21314;-76
2021/11/18 02:07:34;;;;;;;45.70;19.17;;;;;;;-4.31;80.62;101160.17;1734677;82;21716;-76
2021/11/18 02:10:47;;;;;;;44.27;20.02;;;;;;;-4.37;81.05;101159.95;1766746;81;21350;-76
2021/11/18 02:13:51;;;;;;;;;;;;;;;-4.33;81.52;101158.00;1753728;81;21302;-76
2021/11/18 02:16:56;;;;;;;42.88;19.85;;;;;;;-4.28;81.77;101158.72;1739681;82;20290;-76
2021/11/18 02:20:06;;;;;;;39.75;18.52;;;;;;;-4.23;81.93;101151.86;1739798;82;21318;-76
2021/11/18 02:23:23;;;;;;;39.45;20.17;;;;;;;-4.20;82.10;101147.23;1739954;82;21746;-76
2021/11/18 02:26:31;;;;;;;40.83;18.55;;;;;;;-4.14;82.23;101150.12;1742611;82;21644;-75
2021/11/18 02:29:37;;;;;;;37.60;18.05;;;;;;;-4.06;82.03;101152.02;1738669;82;21330;-76
2021/11/18 02:32:44;;;;;;;42.48;22.50;;;;;;;-4.01;81.82;101159.37;1738424;82;21364;-76
2021/11/18 02:35:51;;;;;;;46.35;22.77;;;;;;;-3.99;81.90;101157.53;1738369;81;21184;-76
2021/11/18 02:38:57;;;;;;;46.33;20.68;;;;;;;-4.01;82.30;101144.68;1740856;82;21946;-76
2021/11/18 02:42:02;;;;;;;46.28;19.57;;;;;;;-3.99;82.61;101146.84;1739810;82;21311;-78
2021/11/18 02:45:07;;;;;;;39.60;18.62;;;;;;;-3.97;82.54;101142.29;1739389;82;21758;-77
2021/11/18 02:48:14;;;;;;;44.67;20.88;;;;;;;-3.98;82.30;101133.01;1738843;80;21370;-77
2021/11/18 02:51:21;;;;;;;40.80;20.12;;;;;;;-3.99;82.14;101133.48;1740089;82;21299;-77
2021/11/18 02:54:28;;;;;;;43.98;20.37;;;;;;;-4.03;82.07;101141.22;1741007;82;21216;-78
2021/11/18 02:57:34;;;;;;;43.50;19.37;;;;;;;-4.06;81.94;101140.00;1741038;82;21196;-77
2021/11/18 03:00:44;;;;;;;43.68;19.02;;;;;;;-4.08;82.09;101131.66;1739519;82;21374;-77
2021/11/18 03:03:50;;;;;;;37.98;19.02;;;;;;;-4.04;82.06;101133.27;1740044;82;21313;-77
2021/11/18 03:06:55;;;;;;;48.55;19.67;;;;;;;-4.14;81.56;101126.97;1739828;82;21984;-78
2021/11/18 03:10:01;;;;;;;45.95;21.68;;;;;;;-4.34;81.49;101130.03;1738393;81;21326;-77
2021/11/18 03:13:07;;;;;;;39.18;19.73;;;;;;;-4.43;82.11;101132.13;1739749;82;21180;-76
2021/11/18 03:16:12;;;;;;;36.15;17.32;;;;;;;-4.49;82.25;101134.19;1738924;82;21627;-76
2021/11/18 03:19:18;;;;;;;39.15;19.12;;;;;;;-4.60;82.40;101133.28;1739017;82;21309;-76
2021/11/18 03:22:24;;;;;;;52.58;20.02;;;;;;;-4.71;82.42;101136.34;1739683;82;21343;-76
2021/11/18 03:25:33;;;;;;;39.38;20.75;;;;;;;-4.82;82.54;101141.23;1739783;82;21190;-76
2021/11/18 03:28:40;;;;;;;31.68;15.53;;;;;;;-4.82;82.91;101139.91;1739497;82;21326;-76
2021/11/18 03:31:47;;;;;;;38.70;18.40;;;;;;;-4.82;83.01;101139.91;1738934;82;21342;-77
2021/11/18 03:34:55;;;;;;;41.98;19.87;;;;;;;-4.92;83.06;101142.05;1739785;82;21351;-77
2021/11/18 03:38:00;;;;;;;46.08;20.57;;;;;;;-5.01;83.35;101144.20;1739944;82;21169;-77
2021/11/18 03:41:05;;;;;;;40.08;19.85;;;;;;;-5.03;83.58;101145.60;1740177;82;22141;-76
2021/11/18 03:44:12;;;;;;;45.30;18.40;;;;;;;-5.02;84.06;101148.67;1738405;82;21302;-76
2021/11/18 03:47:20;;;;;;;36.55;18.07;;;;;;;-5.02;83.99;101143.33;1738909;82;21310;-77
2021/11/18 03:50:26;;;;;;;36.23;18.50;;;;;;;-5.12;83.72;101137.94;1732958;82;21382;-77
2021/11/18 03:53:35;;;;;;;41.48;19.17;;;;;;;-5.21;84.05;101142.27;1733194;81;21307;-77
2021/11/18 03:56:40;;;;;;;36.50;18.40;;;;;;;-5.29;84.27;101145.67;1765931;81;21318;-77
2021/11/18 03:59:47;;;;;;;45.20;18.77;;;;;;;-5.30;84.48;101138.61;1766233;81;21831;-78
2021/11/18 04:02:54;;;;;;;41.98;18.45;;;;;;;-5.30;84.70;101146.14;1704506;82;21753;-76
2021/11/18 04:06:02;;;;;;;39.58;19.57;;;;;;;-5.33;84.84;101153.38;1732547;82;21257;-76
2021/11/18 04:09:20;;;;;;;44.67;21.15;;;;;;;-5.40;85.08;101145.60;1704548;84;21865;-75
2021/11/18 04:12:26;;;;;;;48.20;20.25;;;;;;;-5.38;85.33;101140.20;1704940;84;21846;-76
2021/11/18 04:15:33;;;;;;;37.17;17.73;;;;;;;-5.37;85.49;101143.27;1703298;84;21208;-76
2021/11/18 04:18:40;;;;;;;32.75;16.75;;;;;;;-5.34;85.49;101136.50;1731395;82;21280;-76
2021/11/18 04:21:49;;;;;;;37.40;18.02;;;;;;;-5.41;85.11;101129.20;1731429;82;21742;-76
2021/11/18 04:24:57;;;;;;;38.48;19.40;;;;;;;-5.43;85.37;101136.84;1729123;82;21314;-76
2021/11/18 04:28:04;;;;;;;39.88;18.67;;;;;;;-5.43;85.60;101137.70;1726961;82;21279;-76
2021/11/18 04:31:16;;;;;;;44.23;20.55;;;;;;;-5.46;85.79;101140.50;1703846;84;21623;-76
2021/11/18 04:34:21;;;;;;;41.53;20.32;;;;;;;-5.49;85.81;101135.73;1704617;84;21345;-76
2021/11/18 04:37:27;;;;;;;37.60;18.45;;;;;;;-5.53;85.87;101133.62;1704888;84;21310;-76
2021/11/18 04:40:32;;;;;;;51.65;20.97;;;;;;;-5.49;86.05;101135.73;1758691;81;21758;-76
2021/11/18 04:43:38;;;;;;;41.28;18.40;;;;;;;-5.48;86.23;101134.80;1767704;81;21933;-76
2021/11/18 04:46:44;;;;;;;40.58;18.27;;;;;;;-5.46;86.31;101144.50;1767294;81;21323;-76
2021/11/18 04:49:52;;;;;;;46.90;19.52;;;;;;;-5.44;86.51;101139.10;1747218;81;21950;-76
2021/11/18 04:52:58;;;;;;;46.83;21.02;;;;;;;-5.43;86.73;101137.70;1734455;82;21298;-76
2021/11/18 04:56:04;;;;;;;43.20;19.17;;;;;;;-5.41;86.82;101151.87;1734345;81;21338;-77
2021/11/18 04:59:12;;;;;;;33.98;19.07;;;;;;;-5.36;86.87;101156.14;1730243;82;21200;-76
2021/11/18 05:02:17;;;;;;;44.55;20.52;;;;;;;-5.38;86.85;101149.53;1733374;82;21295;-76
2021/11/18 05:05:23;;;;;;;41.15;18.65;;;;;;;-5.38;86.92;101156.67;1732650;82;21208;-77
2021/11/18 05:08:29;;;;;;;43.17;19.17;;;;;;;-5.36;87.06;101147.70;1713304;81;21117;-77
2021/11/18 05:11:35;;;;;;;52.62;20.27;;;;;;;-5.33;87.00;101154.70;1736013;82;21897;-77
2021/11/18 05:14:42;;;;;;;40.67;21.52;;;;;;;-5.32;87.09;101149.77;1745672;82;21227;-77
2021/11/18 05:17:48;;;;;;;40.23;19.25;;;;;;;-5.33;87.28;101147.57;1734548;82;21901;-76
2021/11/18 05:20:53;;;;;;;45.23;19.37;;;;;;;-5.30;87.57;101149.27;1736239;82;22210;-76
2021/11/18 05:23:58;;;;;;;45.12;20.27;;;;;;;-5.27;87.83;101150.05;1737141;82;21322;-76
2021/11/18 05:27:03;;;;;;;42.08;20.27;;;;;;;-5.25;87.92;101146.84;1733435;82;21877;-76
2021/11/18 05:30:11;;;;;;;40.52;21.48;;;;;;;-5.19;87.95;101147.08;1737470;81;21353;-76
2021/11/18 05:33:20;;;;;;;42.25;20.50;;;;;;;-5.16;88.09;101149.64;1774643;81;21865;-76
2021/11/18 05:36:26;;;;;;;45.30;19.17;;;;;;;-5.14;88.12;101157.11;1775218;81;21180;-76
2021/11/18 05:39:31;;;;;;;44.42;19.62;;;;;;;-5.09;88.30;101159.14;1743890;81;21156;-76
2021/11/18 05:42:39;;;;;;;45.38;20.82;;;;;;;-5.06;88.34;101160.38;1743118;80;21230;-76
2021/11/18 05:45:44;;;;;;;42.83;21.00;;;;;;;-4.97;88.52;101159.17;1737315;80;21348;-76
2021/11/18 05:48:52;;;;;;;41.58;20.43;;;;;;;-4.90;88.65;101149.99;1740199;82;21345;-77
2021/11/18 05:51:58;;;;;;;42.70;22.13;;;;;;;-4.85;88.67;101152.48;1751168;80;21180;-76
2021/11/18 05:55:04;;;;;;;41.75;20.23;;;;;;;-4.80;88.82;101152.71;1738115;80;21279;-77
2021/11/18 05:58:09;;;;;;;58.50;22.73;;;;;;;-4.72;88.99;101153.77;1735068;81;21305;-77
2021/11/18 06:01:15;;;;;;;45.35;19.98;;;;;;;-4.62;89.09;101156.48;1733788;80;21228;-76
2021/11/18 06:04:21;;;;;;;50.33;22.02;;;;;;;-4.48;89.20;101158.62;1696632;83;21280;-77
2021/11/18 06:07:29;;;;;;;42.27;21.57;;;;;;;-4.37;89.29;101158.62;1686999;82;21932;-77
2021/11/18 06:10:36;;;;;;;42.48;18.10;;;;;;;-4.21;89.31;101158.00;1658987;84;21253;-77
2021/11/18 06:13:43;;;;;;;48.80;20.50;;;;;;;-4.08;89.21;101159.72;1694597;82;21318;-77
2021/11/18 06:16:49;;;;;;;41.00;20.60;;;;;;;-3.99;89.10;101154.86;1696553;82;21596;-77
2021/11/18 06:20:10;;;;;;;;;;;;;;;;;;;;;
2021/11/18 06:23:14;;;;;;;43.33;21.77;;;;;;;-3.84;89.46;101151.14;1691878;82;21290;-76
2021/11/18 06:26:20;;;;;;;41.98;21.12;;;;;;;-3.75;89.63;101148.95;1701593;82;21225;-77
2021/11/18 06:29:30;;;;;;;46.08;22.07;;;;;;;-3.70;89.78;101149.63;1691822;82;21343;-77
2021/11/18 06:32:37;;;;;;;35.17;19.70;;;;;;;-3.63;90.15;101147.55;1689632;82;21217;-77
2021/11/18 06:35:43;;;;;;;37.95;19.80;;;;;;;-3.62;90.46;101138.61;1660633;84;21398;-78
2021/11/18 06:38:55;;;;;;;41.40;22.43;;;;;;;-3.54;90.94;101136.45;1688344;82;21613;-78
2021/11/18 06:42:03;;;;;;;50.20;26.48;;;;;;;-3.48;91.40;101133.53;1688882;82;21309;-80
2021/11/18 06:45:10;;;;;;;46.13;22.75;;;;;;;-3.42;91.68;101129.72;1661832;84;21383;-80
2021/11/18 06:48:16;;;;;;;44.30;24.07;;;;;;;-3.28;91.89;101131.78;1691121;82;21228;-77
2021/11/18 06:51:27;;;;;;;50.80;22.50;;;;;;;-3.19;92.07;101126.02;1659090;84;21255;-77
2021/11/18 06:54:34;;;;;;;47.73;21.97;;;;;;;-3.06;92.34;101124.97;1692336;82;21773;-77
2021/11/18 06:57:41;;;;;;;43.68;22.87;;;;;;;-2.94;92.42;101123.09;1664465;84;21234;-77
2021/11/18 07:00:46;;;;;;;43.02;22.82;;;;;;;-2.79;92.46;101118.83;1694933;82;21301;-77
2021/11/18 07:03:55;;;;;;;36.30;20.77;;;;;;;-2.69;92.47;101120.12;1663216;84;21232;-77
2021/11/18 07:07:05;;;;;;;42.85;21.40;;;;;;;-2.61;92.68;101114.81;1689510;81;21195;-78
2021/11/18 07:10:13;;;;;;;43.35;22.93;;;;;;;-2.52;92.79;101118.00;1665072;84;21229;-77
2021/11/18 07:13:32;;;;;;;40.88;20.90;;;;;;;-2.49;93.05;101112.47;1698115;82;21223;-78
2021/11/18 07:16:39;;;;;;;102.67;74.87;;;;;;;-2.42;93.54;101097.38;1698099;82;21172;-80
2021/11/18 07:19:45;;;;;;;49.95;26.55;;;;;;;-2.34;93.93;101099.23;1695822;82;21272;-77
2021/11/18 07:22:50;;;;;;;51.88;32.80;;;;;;;-2.17;94.33;101093.02;1693313;82;21207;-78
2021/11/18 07:26:07;;;;;;;43.30;26.73;;;;;;;-2.04;94.41;101095.96;1673683;82;21244;-77
2021/11/18 07:29:14;;;;;;;69.03;47.80;;;;;;;-1.90;94.21;101086.75;1710210;81;21853;-77
2021/11/18 07:32:21;;;;;;;53.38;29.07;;;;;;;-1.81;93.62;101075.55;1665957;84;21228;-77
2021/11/18 07:35:32;;;;;;;68.35;46.02;;;;;;;-1.73;93.26;101079.67;1696796;82;21216;-77
2021/11/18 07:38:38;;;;;;;88.55;62.13;;;;;;;-1.66;92.99;101081.94;1697995;82;21260;-77
2021/11/18 07:41:46;;;;;;;71.45;48.35;;;;;;;-1.53;92.51;101071.91;1666467;84;21198;-78
2021/11/18 07:44:57;;;;;;;53.05;34.38;;;;;;;-1.44;91.25;101072.30;1643463;84;21215;-78
2021/11/18 07:48:07;;;;;;;;;;;;;;;-1.37;90.38;101076.38;1691609;82;21208;-78
2021/11/18 07:51:16;;;;;;;53.30;35.78;;;;;;;-1.29;89.67;101080.00;1696547;82;20269;-78
2021/11/18 07:54:25;;;;;;;;;;;;;;;-1.27;88.69;101085.28;1638942;84;21146;-78
2021/11/18 07:57:40;;;;;;;53.52;33.90;;;;;;;-1.21;88.53;101068.39;1654309;85;20334;-78
2021/11/18 08:00:50;;;;;;;96.12;70.05;;;;;;;-1.12;87.58;101065.69;1641850;85;21581;-77
2021/11/18 08:03:58;;;;;;;45.43;27.10;;;;;;;-1.05;86.86;101068.41;1641805;85;21255;-77
2021/11/18 08:07:07;;;;;;;117.22;92.00;;;;;;;-0.98;85.60;101068.48;1638286;85;21257;-75
2021/11/18 08:10:14;;;;;;;47.75;30.70;;;;;;;-0.91;84.11;101068.52;1690533;82;21188;-76
2021/11/18 08:13:22;;;;;;;123.78;101.82;;;;;;;-0.84;83.78;101070.41;1699571;82;21835;-77
2021/11/18 08:16:26;;;;;;;44.93;24.37;;;;;;;-0.75;83.43;101071.24;1702383;82;21345;-77
2021/11/18 08:19:31;;;;;;;51.60;36.30;;;;;;;-0.67;82.95;101074.83;1701086;82;21194;-77
2021/11/18 08:22:39;;;;;;;44.03;20.55;;;;;;;-0.61;81.58;101078.50;1707103;82;21338;-78
2021/11/18 08:25:45;;;;;;;59.95;38.17;;;;;;;-0.56;80.32;101063.02;1681260;82;21408;-77
2021/11/18 08:28:54;;;;;;;57.62;42.50;;;;;;;-0.46;80.01;101066.91;1704034;82;21204;-76
2021/11/18 08:32:01;;;;;;;44.05;25.92;;;;;;;-0.36;79.70;101064.08;1695195;82;21326;-76
2021/11/18 08:35:06;;;;;;;53.83;34.08;;;;;;;-0.27;79.42;101071.61;1685354;82;21878;-78
2021/11/18 08:38:19;;;;;;;52.43;28.32;;;;;;;-0.16;78.89;101073.67;1691393;82;21565;-77
2021/11/18 08:41:27;;;;;;;66.85;32.65;;;;;;;-0.08;77.40;101075.92;1705001;82;21558;-77
2021/11/18 08:44:36;;;;;;;58.95;27.77;;;;;;;-0.04;75.89;101064.03;1704958;82;21887;-77
2021/11/18 08:47:45;;;;;;;66.90;32.48;;;;;;;0.02;75.21;101056.94;1701965;82;21166;-76
2021/11/18 08:50:53;;;;;;;81.63;45.08;;;;;;;0.07;74.10;101059.36;1709378;81;21318;-76
2021/11/18 08:54:00;;;;;;;67.92;33.15;;;;;;;0.10;73.86;101058.70;1709174;81;21266;-76
2021/11/18 08:57:07;;;;;;;65.00;28.75;;;;;;;0.17;73.60;101050.64;1729206;80;21318;-77
2021/11/18 09:00:31;;;;;;;65.30;29.90;;;;;;;0.25;73.24;101044.33;1732359;80;21228;-77
2021/11/18 09:03:42;;;;;;;63.98;28.20;;;;;;;0.37;73.19;101040.49;1723678;81;21313;-77
2021/11/18 09:19:24;;;;;;;71.30;25.37;;;;;;;1.11;67.70;101028.20;1754396;79;21823;-77
2021/11/18 09:22:31;;;;;;;68.40;25.77;;;;;;;1.28;64.71;101026.64;1755631;79;21315;-78
2021/11/18 09:25:44;;;;;;;67.08;26.25;;;;;;;1.40;64.57;101014.67;1756722;79;21338;-78
2021/11/18 09:28:52;;;;;;;73.28;28.55;;;;;;;1.55;61.78;101012.30;1756166;79;21274;-77
2021/11/18 09:32:15;;;;;;;76.92;27.95;;;;;;;1.69;61.33;101016.78;1715820;80;21692;-81
2021/11/18 09:35:26;;;;;;;82.37;31.45;;;;;;;1.82;61.31;101023.58;1734191;80;21451;-78
2021/11/18 09:38:36;;;;;;;61.83;26.75;;;;;;;1.94;60.64;101016.89;1732254;80;21404;-77
2021/11/18 09:41:47;;;;;;;68.97;25.95;;;;;;;2.07;59.96;101011.98;1730771;81;21275;-77
2021/11/18 09:45:05;;;;;;;80.65;29.52;;;;;;;2.19;59.10;101009.80;1729689;80;21769;-77
2021/11/18 09:48:48;;;;;;;83.10;29.40;;;;;;;2.29;56.94;100998.74;1732104;80;21211;-77
2021/11/18 09:52:19;;;;;;;65.55;27.82;;;;;;;2.34;56.10;100992.54;1713975;82;21507;-76
2021/11/18 09:56:04;;;;;;;81.87;30.25;;;;;;;2.43;56.17;100991.03;1756527;79;21191;-77
2021/11/18 09:59:46;;;;;;;69.53;28.67;;;;;;;2.52;55.13;100986.34;1743553;80;21840;-78
2021/11/18 10:02:59;;;;;;;92.62;30.90;;;;;;;2.59;55.02;100978.66;1735063;80;21571;-77
2021/11/18 10:06:28;;;;;;;74.35;28.42;;;;;;;2.66;54.19;100974.06;1689466;82;21378;-77
2021/11/18 10:10:07;;;;;;;49.08;23.38;;;;;;;2.73;54.75;100965.92;1676430;83;21189;-76
2021/11/18 10:14:12;;;;;;;44.60;20.92;;;;;;;2.83;54.76;100964.77;1730974;81;21261;-78
2021/11/18 10:17:39;;;;;;;44.10;19.92;;;;;;;2.92;54.19;100959.19;1727453;80;21189;-76
2021/11/18 10:20:49;;;;;;;37.83;19.23;;;;;;;3.00;53.74;100954.92;1706951;82;21201;-78
2021/11/18 10:24:09;;;;;;;42.67;19.82;;;;;;;3.06;53.61;100938.28;1705129;82;21209;-78
2021/11/18 10:27:20;;;;;;;40.43;20.08;;;;;;;3.11;53.19;100940.64;1704187;82;21377;-76
2021/11/18 10:30:56;;;;;;;43.95;17.05;;;;;;;3.16;53.35;100939.81;1681388;82;21207;-77
2021/11/18 10:34:33;;;;;;;37.03;17.62;;;;;;;3.20;53.08;100934.56;1704838;82;21316;-79
2021/11/18 10:37:46;;;;;;;30.43;16.80;;;;;;;3.22;53.02;100925.83;1705868;82;21211;-77
2021/11/18 10:41:11;;;;;;;36.73;16.32;;;;;;;3.27;53.11;100929.05;1682822;82;21215;-78
2021/11/18 10:44:38;;;;;;;45.98;17.50;;;;;;;3.31;52.86;100918.87;1689171;82;21143;-77
2021/11/18 10:48:11;;;;;;;43.00;17.05;;;;;;;3.33;52.75;100911.02;1686750;82;21231;-77
2021/11/18 10:51:27;;;;;;;32.38;16.27;;;;;;;3.35;52.85;100912.76;1697283;82;21294;-76
2021/11/18 10:54:55;;;;;;;39.15;17.65;;;;;;;3.39;53.16;100908.82;1693654;82;21191;-77
2021/11/18 10:58:14;;;;;;;49.67;18.43;;;;;;;3.41;53.41;100903.69;1711477;82;21333;-78
2021/11/18 11:01:35;;;;;;;34.60;16.93;;;;;;;3.46;53.63;100893.87;1709052;82;21210;-78
2021/11/18 11:04:50;;;;;;;53.52;20.23;;;;;;;3.50;53.98;100896.23;1715287;82;21338;-77
2021/11/18 11:07:56;;;;;;;38.80;19.20;;;;;;;3.55;53.69;100886.41;1710412;82;21593;-76
2021/11/18 11:11:16;;;;;;;58.00;18.57;;;;;;;3.59;53.88;100883.35;1685379;82;21203;-77
2021/11/18 11:14:58;;;;;;;31.10;17.20;;;;;;;3.65;53.92;100879.30;1689139;82;21192;-76
2021/11/18 11:18:50;;;;;;;36.70;18.05;;;;;;;3.67;53.66;100874.66;1637634;85;22206;-76
2021/11/18 11:22:13;;;;;;;33.73;15.90;;;;;;;3.67;53.56;100877.83;1629834;85;21371;-77
2021/11/18 11:25:33;;;;;;;35.55;18.05;;;;;;;3.73;53.74;100872.83;1666083;82;21203;-76
2021/11/18 11:29:20;;;;;;;35.63;17.60;;;;;;;3.75;54.00;100870.84;1700046;82;21470;-77
2021/11/18 11:33:05;;;;;;;38.42;17.95;;;;;;;3.78;54.04;100870.62;1696201;82;21224;-78
2021/11/18 11:36:35;;;;;;;37.20;17.98;;;;;;;3.80;54.00;100869.99;1702424;82;21260;-76
2021/11/18 11:40:13;;;;;;;35.55;18.98;;;;;;;3.84;53.95;100866.08;1702870;82;21197;-77
2021/11/18 11:43:35;;;;;;;43.38;18.37;;;;;;;3.90;53.89;100864.72;1689599;82;21302;-77
2021/11/18 11:46:53;;;;;;;34.65;17.70;;;;;;;3.96;53.89;100862.91;1670830;82;21215;-76
2021/11/18 11:50:08;;;;;;;36.17;17.45;;;;;;;3.93;53.43;100861.79;1701269;82;21332;-77
2021/11/18 11:53:23;;;;;;;38.20;18.17;;;;;;;3.92;53.37;100851.95;1699338;82;21477;-77
2021/11/18 11:56:49;;;;;;;37.08;16.93;;;;;;;3.95;53.26;100850.37;1703261;82;21200;-78
2021/11/18 12:00:06;;;;;;;35.17;16.65;;;;;;;3.98;53.65;100841.13;1692865;82;21315;-77
2021/11/18 12:03:33;;;;;;;29.85;15.83;;;;;;;4.02;54.11;100848.03;1696638;82;21267;-76
2021/11/18 12:06:46;;;;;;;29.23;15.98;;;;;;;4.03;54.44;100836.21;1696428;82;21337;-77
2021/11/18 12:10:01;;;;;;;36.93;15.38;;;;;;;4.03;54.70;100836.21;1695563;82;21639;-76
2021/11/18 12:13:41;;;;;;;27.32;14.33;;;;;;;4.01;54.62;100829.58;1696459;82;21196;-76
2021/11/18 12:17:07;;;;;;;27.82;15.23;;;;;;;4.01;54.67;100830.92;1694777;82;21232;-77
2021/11/18 12:20:26;;;;;;;30.23;12.75;;;;;;;4.03;54.93;100832.15;1651214;82;21713;-79
2021/11/18 12:24:10;;;;;;;26.82;14.78;;;;;;;4.03;55.07;100833.50;1630950;84;21279;-78
2021/11/18 12:27:32;;;;;;;21.17;11.73;;;;;;;4.06;55.19;100833.27;1730583;81;21180;-76
2021/11/18 12:31:04;;;;;;;26.25;12.93;;;;;;;4.04;55.33;100829.80;1730385;81;21228;-76
2021/11/18 12:34:16;;;;;;;21.20;11.05;;;;;;;4.01;55.38;100836.84;1730483;81;21177;-78
2021/11/18 12:37:28;;;;;;;19.23;10.93;;;;;;;3.97;55.23;100829.94;1740047;81;21230;-78
2021/11/18 12:41:12;;;;;;;20.48;11.22;;;;;;;3.94;55.21;100826.11;1716549;81;21164;-77
2021/11/18 12:44:41;;;;;;;24.15;10.80;;;;;;;3.93;55.14;100816.27;1729987;81;21683;-77
2021/11/18 12:48:13;;;;;;;19.07;11.05;;;;;;;3.91;55.08;100819.11;1736688;81;21177;-78
2021/11/18 12:52:01;;;;;;;25.05;10.68;;;;;;;3.88;55.03;100807.16;1736200;81;21846;-78
2021/11/18 12:55:26;;;;;;;18.95;10.80;;;;;;;3.88;55.17;100813.07;1729307;81;21639;-78
2021/11/18 12:58:37;;;;;;;18.73;10.98;;;;;;;3.84;55.31;100811.95;1728288;81;21304;-79
2021/11/18 13:02:03;;;;;;;19.35;10.25;;;;;;;3.83;55.47;100808.88;1729000;81;21193;-77
2021/11/18 13:05:30;;;;;;;20.00;10.48;;;;;;;3.81;55.52;100814.03;1729249;81;21211;-79
2021/11/18 13:08:58;;;;;;;22.45;9.78;;;;;;;3.78;55.74;100807.03;1721226;81;22170;-77
2021/11/18 13:12:06;;;;;;;21.82;10.75;;;;;;;3.75;55.72;100807.75;1722005;81;21231;-77
2021/11/18 13:15:25;;;;;;;24.40;11.33;;;;;;;3.71;55.70;100797.66;1725398;81;21148;-77
2021/11/18 13:18:39;;;;;;;20.52;10.13;;;;;;;3.68;55.77;100798.41;1729225;81;21163;-77
2021/11/18 13:21:55;;;;;;;26.07;10.95;;;;;;;3.64;55.87;100788.80;1733083;81;22273;-77
2021/11/18 13:25:25;;;;;;;34.40;11.57;;;;;;;3.59;55.98;100789.16;1721628;80;21145;-77
2021/11/18 13:29:07;;;;;;;44.27;15.83;;;;;;;3.54;56.13;100790.02;1725707;80;21271;-76
2021/11/18 13:32:16;;;;;;;43.63;16.17;;;;;;;3.48;56.33;100791.83;1693694;82;21179;-80
2021/11/18 13:35:39;;;;;;;39.70;15.65;;;;;;;3.41;56.56;100790.59;1679026;83;21856;-77
2021/11/18 13:39:11;;;;;;;47.85;17.65;;;;;;;3.33;56.91;100786.63;1690959;82;22264;-78
2021/11/18 13:42:47;;;;;;;;;;;;;;;3.26;57.19;100792.15;1683248;83;21225;-78
2021/11/18 13:46:12;;;;;;;34.40;14.93;;;;;;;3.18;57.47;100790.52;1678441;83;20644;-78
2021/11/18 13:49:29;;;;;;;24.23;11.65;;;;;;;3.08;57.71;100784.09;1687872;83;21215;-77
2021/11/18 13:52:42;;;;;;;26.97;12.45;;;;;;;3.00;57.92;100785.16;1688692;83;21307;-76
2021/11/18 13:56:07;;;;;;;24.63;12.23;;;;;;;2.93;58.15;100783.42;1695499;82;21219;-77
2021/11/18 13:59:25;;;;;;;22.73;11.85;;;;;;;2.89;58.37;100783.77;1703540;82;21172;-77
2021/11/18 14:02:35;;;;;;;37.88;14.47;;;;;;;2.82;58.63;100777.94;1675003;83;21268;-76
2021/11/18 14:05:48;;;;;;;38.50;16.57;;;;;;;2.78;58.85;100771.93;1691953;83;21204;-77
2021/11/18 14:08:59;;;;;;;37.78;15.98;;;;;;;2.71;58.80;100767.95;1659693;82;21195;-78
2021/11/18 14:12:12;;;;;;;41.13;18.12;;;;;;;2.67;58.68;100762.89;1649940;84;21164;-76
2021/11/18 14:16:00;;;;;;;44.45;17.00;;;;;;;2.62;58.69;100761.88;1680557;83;21347;-76
2021/11/18 14:19:21;;;;;;;34.30;18.37;;;;;;;2.55;58.74;100765.54;1676626;82;21243;-78
2021/11/18 14:22:37;;;;;;;41.80;18.65;;;;;;;2.45;58.90;100764.50;1722034;82;21346;-76
2021/11/18 14:25:49;;;;;;;50.50;17.82;;;;;;;2.37;58.97;100756.59;1726241;81;21294;-78
2021/11/18 14:29:00;;;;;;;37.53;18.95;;;;;;;2.29;58.83;100744.50;1730729;81;21314;-78
2021/11/18 14:32:22;;;;;;;36.42;18.90;;;;;;;2.20;59.08;100749.22;1665639;85;21329;-76
2021/11/18 14:36:00;;;;;;;34.50;17.25;;;;;;;2.12;59.31;100743.55;1729256;81;21295;-77
2021/11/18 14:39:05;;;;;;;391.93;150.45;;;;;;;2.07;59.56;100738.97;1730262;81;21284;-80
2021/11/18 14:42:25;;;;;;;172.70;57.70;;;;;;;2.00;59.65;100740.38;1720860;81;21921;-79
2021/11/18 14:45:39;;;;;;;95.32;34.13;;;;;;;1.97;59.94;100744.14;1736864;82;21208;-79
2021/11/18 14:48:56;;;;;;;289.20;120.40;;;;;;;1.89;59.83;100738.95;1760510;81;21310;-79
2021/11/18 14:52:03;;;;;;;205.32;76.05;;;;;;;1.78;60.36;100738.34;1764768;81;21656;-78
2021/11/18 14:55:38;;;;;;;79.20;36.28;;;;;;;1.70;60.67;100733.52;1747833;81;21953;-78
2021/11/18 14:58:44;;;;;;;119.72;44.80;;;;;;;1.66;61.26;100729.80;1763907;81;21961;-78